sensor_id;sensor_type;location;lat;lon;timestamp;pressure;altitude;pressure_sealevel;temperature;humidity
54503;BME280;40411;50.090;21.954;2023-07-13T00:00:26;-6022.22;;;18.50;100.00
54503;BME280;40411;50.090;21.954;2023-07-13T00:03:12;-6021.88;;;18.41;100.00
54503;BME280;40411;50.090;21.954;2023-07-13T00:05:39;-6021.91;;;18.42;100.00
54503;BME280;40411;50.090;21.954;2023-07-13T00:08:07;-6354.66;;;18.53;100.00
54503;BME280;40411;50.090;21.954;2023-07-13T00:10:34;-6354.53;;;18.50;100.00
54503;BME280;40411;50.090;21.954;2023-07-13T00:13:00;-6354.66;;;18.53;100.00
54503;BME280;40411;50.090;21.954;2023-07-13T00:15:26;-6021.88;;;18.40;100.00
54503;BME280;40411;50.090;21.954;2023-07-13T00:17:54;-5689.38;;;18.34;100.00
54503;BME280;40411;50.090;21.954;2023-07-13T00:20:24;-5356.84;;;18.24;100.00
54503;BME280;40411;50.090;21.954;2023-07-13T00:22:53;-5689.16;;;18.26;100.00
54503;BME280;40411;50.090;21.954;2023-07-13T00:25:20;-5689.50;;;18.38;100.00
54503;BME280;40411;50.090;21.954;2023-07-13T00:27:48;-6022.06;;;18.46;100.00
54503;BME280;40411;50.090;21.954;2023-07-13T00:30:15;-6354.94;;;18.60;100.00
54503;BME280;40411;50.090;21.954;2023-07-13T00:32:41;-6355.13;;;18.65;100.00
54503;BME280;40411;50.090;21.954;2023-07-13T00:35:07;-6355.31;;;18.69;100.00
54503;BME280;40411;50.090;21.954;2023-07-13T00:37:33;-6022.47;;;18.58;100.00
54503;BME280;40411;50.090;21.954;2023-07-13T00:40:03;-5689.63;;;18.43;100.00
54503;BME280;40411;50.090;21.954;2023-07-13T00:42:29;-5356.97;;;18.29;100.00
54503;BME280;40411;50.090;21.954;2023-07-13T00:47:40;-5356.97;;;18.30;100.00
54503;BME280;40411;50.090;21.954;2023-07-13T00:50:08;-5689.41;;;18.35;100.00
54503;BME280;40411;50.090;21.954;2023-07-13T00:52:36;-5689.34;;;18.33;100.00
54503;BME280;40411;50.090;21.954;2023-07-13T00:55:04;-5689.50;;;18.38;100.00
54503;BME280;40411;50.090;21.954;2023-07-13T00:57:30;-5689.50;;;18.38;100.00
54503;BME280;40411;50.090;21.954;2023-07-13T00:59:59;-5357.06;;;18.34;100.00
54503;BME280;40411;50.090;21.954;2023-07-13T01:02:33;-5356.97;;;18.29;100.00
54503;BME280;40411;50.090;21.954;2023-07-13T01:04:59;-5689.38;;;18.34;100.00
54503;BME280;40411;50.090;21.954;2023-07-13T01:07:27;-5356.97;;;18.29;100.00
54503;BME280;40411;50.090;21.954;2023-07-13T01:09:56;-5356.97;;;18.30;100.00
54503;BME280;40411;50.090;21.954;2023-07-13T01:12:22;-5689.38;;;18.34;100.00
54503;BME280;40411;50.090;21.954;2023-07-13T01:14:56;-5689.63;;;18.42;100.00
54503;BME280;40411;50.090;21.954;2023-07-13T01:17:22;-6022.56;;;18.61;100.00
54503;BME280;40411;50.090;21.954;2023-07-13T01:19:47;-6022.63;;;18.62;100.00
54503;BME280;40411;50.090;21.954;2023-07-13T01:22:16;-6022.69;;;18.64;100.00
54503;BME280;40411;50.090;21.954;2023-07-13T01:24:47;-5357.22;;;18.40;100.00
54503;BME280;40411;50.090;21.954;2023-07-13T01:27:22;-5356.88;;;18.25;100.00
54503;BME280;40411;50.090;21.954;2023-07-13T01:29:51;-5356.97;;;18.30;100.00
54503;BME280;40411;50.090;21.954;2023-07-13T01:32:23;-5357.09;;;18.35;100.00
54503;BME280;40411;50.090;21.954;2023-07-13T01:34:51;-5689.56;;;18.41;100.00
54503;BME280;40411;50.090;21.954;2023-07-13T01:37:20;-6022.13;;;18.48;100.00
54503;BME280;40411;50.090;21.954;2023-07-13T01:39:46;-6022.34;;;18.54;100.00
54503;BME280;40411;50.090;21.954;2023-07-13T01:42:13;-6354.94;;;18.60;100.00
54503;BME280;40411;50.090;21.954;2023-07-13T01:44:39;-6354.97;;;18.61;100.00
54503;BME280;40411;50.090;21.954;2023-07-13T01:47:08;-6022.53;;;18.60;100.00
54503;BME280;40411;50.090;21.954;2023-07-13T01:49:34;-6022.69;;;18.64;100.00
54503;BME280;40411;50.090;21.954;2023-07-13T01:52:00;-6022.56;;;18.60;100.00
54503;BME280;40411;50.090;21.954;2023-07-13T01:54:26;-5689.78;;;18.48;100.00
54503;BME280;40411;50.090;21.954;2023-07-13T01:56:52;-6022.56;;;18.61;100.00
54503;BME280;40411;50.090;21.954;2023-07-13T01:59:17;-6022.50;;;18.58;100.00
54503;BME280;40411;50.090;21.954;2023-07-13T02:01:43;-6022.41;;;18.56;100.00
54503;BME280;40411;50.090;21.954;2023-07-13T02:04:09;-6022.28;;;18.52;100.00
54503;BME280;40411;50.090;21.954;2023-07-13T02:06:36;-6355.06;;;18.63;100.00
54503;BME280;40411;50.090;21.954;2023-07-13T02:09:02;-6355.09;;;18.64;100.00
54503;BME280;40411;50.090;21.954;2023-07-13T02:11:28;-6022.19;;;18.49;100.00
54503;BME280;40411;50.090;21.954;2023-07-13T02:14:02;-6355.06;;;18.64;100.00
54503;BME280;40411;50.090;21.954;2023-07-13T02:16:31;-6354.97;;;18.61;100.00
54503;BME280;40411;50.090;21.954;2023-07-13T02:18:57;-6355.13;;;18.65;100.00
54503;BME280;40411;50.090;21.954;2023-07-13T02:21:23;-6355.09;;;18.64;100.00
54503;BME280;40411;50.090;21.954;2023-07-13T02:23:51;-6687.88;;;18.73;100.00
54503;BME280;40411;50.090;21.954;2023-07-13T02:26:18;-6687.88;;;18.73;100.00
54503;BME280;40411;50.090;21.954;2023-07-13T02:28:44;-6688.03;;;18.77;100.00
54503;BME280;40411;50.090;21.954;2023-07-13T02:31:13;-6355.19;;;18.66;100.00
54503;BME280;40411;50.090;21.954;2023-07-13T02:33:39;-6687.81;;;18.72;100.00
54503;BME280;40411;50.090;21.954;2023-07-13T02:36:05;-6354.91;;;18.59;100.00
54503;BME280;40411;50.090;21.954;2023-07-13T02:38:35;-6354.78;;;18.57;100.00
54503;BME280;40411;50.090;21.954;2023-07-13T02:41:03;-6354.53;;;18.50;100.00
54503;BME280;40411;50.090;21.954;2023-07-13T02:43:29;-6354.53;;;18.50;100.00
54503;BME280;40411;50.090;21.954;2023-07-13T02:45:55;-6354.38;;;18.46;100.00
54503;BME280;40411;50.090;21.954;2023-07-13T02:48:21;-6354.41;;;18.47;100.00
54503;BME280;40411;50.090;21.954;2023-07-13T02:50:47;-6022.03;;;18.45;100.00
54503;BME280;40411;50.090;21.954;2023-07-13T02:53:13;-6354.56;;;18.51;100.00
54503;BME280;40411;50.090;21.954;2023-07-13T02:55:39;-6021.78;;;18.38;100.00
54503;BME280;40411;50.090;21.954;2023-07-13T02:58:06;-6021.91;;;18.41;100.00
54503;BME280;40411;50.090;21.954;2023-07-13T03:00:32;-6021.91;;;18.42;100.00
54503;BME280;40411;50.090;21.954;2023-07-13T03:02:58;-6354.47;;;18.48;100.00
54503;BME280;40411;50.090;21.954;2023-07-13T03:05:25;-6354.44;;;18.47;100.00
54503;BME280;40411;50.090;21.954;2023-07-13T03:07:51;-6354.19;;;18.41;100.00
54503;BME280;40411;50.090;21.954;2023-07-13T03:10:17;-6354.16;;;18.41;100.00
54503;BME280;40411;50.090;21.954;2023-07-13T03:12:47;-6687.19;;;18.58;100.00
54503;BME280;40411;50.090;21.954;2023-07-13T03:15:24;-7353.22;;;18.84;100.00
54503;BME280;40411;50.090;21.954;2023-07-13T03:17:52;-7686.88;;;19.05;100.00
54503;BME280;40411;50.090;21.954;2023-07-13T03:20:18;-8021.09;;;19.32;100.00
54503;BME280;40411;50.090;21.954;2023-07-13T03:22:45;-8688.84;;;19.67;100.00
54503;BME280;40411;50.090;21.954;2023-07-13T03:25:12;-8689.88;;;19.80;100.00
54503;BME280;40411;50.090;21.954;2023-07-13T03:27:38;-9024.63;;;20.04;100.00
54503;BME280;40411;50.090;21.954;2023-07-13T03:30:07;-9359.81;;;20.31;100.00
54503;BME280;40411;50.090;21.954;2023-07-13T03:32:34;-9694.06;;;20.45;100.00
54503;BME280;40411;50.090;21.954;2023-07-13T03:35:00;-10029.00;;;20.65;100.00
54503;BME280;40411;50.090;21.954;2023-07-13T03:37:28;-10029.38;;;20.69;100.00
54503;BME280;40411;50.090;21.954;2023-07-13T03:39:55;-10029.69;;;20.72;100.00
54503;BME280;40411;50.090;21.954;2023-07-13T03:42:20;-10364.88;;;20.93;100.00
54503;BME280;40411;50.090;21.954;2023-07-13T03:44:46;-10365.56;;;21.00;100.00
54503;BME280;40411;50.090;21.954;2023-07-13T03:47:18;-10699.41;;;21.05;100.00
54503;BME280;40411;50.090;21.954;2023-07-13T03:49:47;-10365.00;;;20.94;100.00
54503;BME280;40411;50.090;21.954;2023-07-13T03:52:13;-10365.47;;;20.98;100.00
54503;BME280;40411;50.090;21.954;2023-07-13T03:54:39;-10364.59;;;20.90;100.00
54503;BME280;40411;50.090;21.954;2023-07-13T03:57:06;-10364.16;;;20.86;100.00
54503;BME280;40411;50.090;21.954;2023-07-13T03:59:34;-10364.72;;;20.91;100.00
54503;BME280;40411;50.090;21.954;2023-07-13T04:02:01;-10697.63;;;20.88;100.00
54503;BME280;40411;50.090;21.954;2023-07-13T04:04:27;-10362.75;;;20.72;100.00
54503;BME280;40411;50.090;21.954;2023-07-13T04:06:53;-10363.19;;;20.76;100.00
54503;BME280;40411;50.090;21.954;2023-07-13T04:09:19;-10363.03;;;20.74;100.00
54503;BME280;40411;50.090;21.954;2023-07-13T04:11:44;-10362.56;;;20.70;100.00
54503;BME280;40411;50.090;21.954;2023-07-13T04:14:10;-10362.16;;;20.66;100.00
54503;BME280;40411;50.090;21.954;2023-07-13T04:16:36;-10362.31;;;20.67;100.00
54503;BME280;40411;50.090;21.954;2023-07-13T04:19:02;-10361.94;;;20.64;100.00
54503;BME280;40411;50.090;21.954;2023-07-13T04:21:29;-10361.09;;;20.56;100.00
54503;BME280;40411;50.090;21.954;2023-07-13T04:23:56;-10695.09;;;20.65;100.00
54503;BME280;40411;50.090;21.954;2023-07-13T04:26:22;-10694.78;;;20.62;100.00
54503;BME280;40411;50.090;21.954;2023-07-13T04:28:50;-10694.78;;;20.62;100.00
54503;BME280;40411;50.090;21.954;2023-07-13T04:31:16;-11029.97;;;20.81;100.00
54503;BME280;40411;50.090;21.954;2023-07-13T04:33:42;-10695.28;;;20.66;100.00
54503;BME280;40411;50.090;21.954;2023-07-13T04:36:08;-10694.87;;;20.63;100.00
54503;BME280;40411;50.090;21.954;2023-07-13T04:38:35;-10695.22;;;20.66;100.00
54503;BME280;40411;50.090;21.954;2023-07-13T04:41:03;-10694.84;;;20.62;100.00
54503;BME280;40411;50.090;21.954;2023-07-13T04:43:29;-10694.06;;;20.55;100.00
54503;BME280;40411;50.090;21.954;2023-07-13T04:45:56;-10693.41;;;20.49;100.00
54503;BME280;40411;50.090;21.954;2023-07-13T04:48:22;-11028.25;;;20.66;100.00
54503;BME280;40411;50.090;21.954;2023-07-13T04:50:48;-11028.81;;;20.71;100.00
54503;BME280;40411;50.090;21.954;2023-07-13T04:53:19;-10693.47;;;20.49;100.00
54503;BME280;40411;50.090;21.954;2023-07-13T04:55:45;-10693.84;;;20.53;100.00
54503;BME280;40411;50.090;21.954;2023-07-13T04:58:11;-10694.56;;;20.60;100.00
54503;BME280;40411;50.090;21.954;2023-07-13T05:00:38;-11030.66;;;20.87;100.00
54503;BME280;40411;50.090;21.954;2023-07-13T05:03:05;-11029.81;;;20.80;100.00
54503;BME280;40411;50.090;21.954;2023-07-13T05:05:31;-11029.63;;;20.78;100.00
54503;BME280;40411;50.090;21.954;2023-07-13T05:07:57;-11031.34;;;20.93;100.00
54503;BME280;40411;50.090;21.954;2023-07-13T05:10:22;-11031.00;;;20.90;100.00
54503;BME280;40411;50.090;21.954;2023-07-13T05:12:49;-10695.75;;;20.71;100.00
54503;BME280;40411;50.090;21.954;2023-07-13T05:15:15;-11032.25;;;21.02;100.00
54503;BME280;40411;50.090;21.954;2023-07-13T05:17:42;-10697.22;;;20.85;100.00
54503;BME280;40411;50.090;21.954;2023-07-13T05:20:08;-11032.72;;;21.06;100.00
54503;BME280;40411;50.090;21.954;2023-07-13T05:22:34;-11031.78;;;20.97;100.00
54503;BME280;40411;50.090;21.954;2023-07-13T05:25:03;-11033.28;;;21.11;100.00
54503;BME280;40411;50.090;21.954;2023-07-13T05:27:29;-11370.34;;;21.44;100.00
54503;BME280;40411;50.090;21.954;2023-07-13T05:29:54;-11708.22;;;21.80;100.00
54503;BME280;40411;50.090;21.954;2023-07-13T05:32:20;-12044.63;;;22.03;100.00
54503;BME280;40411;50.090;21.954;2023-07-13T05:34:46;-12384.38;;;22.49;100.00
54503;BME280;40411;50.090;21.954;2023-07-13T05:37:12;-13058.97;;;22.98;100.00
54503;BME280;40411;50.090;21.954;2023-07-13T05:39:38;-13399.31;;;23.41;100.00
54503;BME280;40411;50.090;21.954;2023-07-13T05:42:04;-13400.38;;;23.48;100.00
54503;BME280;40411;50.090;21.954;2023-07-13T05:44:30;-12726.69;;;23.11;100.00
54503;BME280;40411;50.090;21.954;2023-07-13T05:46:56;-13061.34;;;23.15;100.00
54503;BME280;40411;50.090;21.954;2023-07-13T05:49:22;-13060.13;;;23.06;100.00
54503;BME280;40411;50.090;21.954;2023-07-13T05:51:48;-12722.09;;;22.78;100.00
54503;BME280;40411;50.090;21.954;2023-07-13T05:54:14;-12386.34;;;22.64;100.00
54503;BME280;40411;50.090;21.954;2023-07-13T05:56:40;-12723.63;;;22.89;100.00
54503;BME280;40411;50.090;21.954;2023-07-13T05:59:05;-12384.25;;;22.48;100.00
54503;BME280;40411;50.090;21.954;2023-07-13T06:01:31;-12721.53;;;22.73;100.00
54503;BME280;40411;50.090;21.954;2023-07-13T06:03:57;-12723.56;;;22.88;100.00
54503;BME280;40411;50.090;21.954;2023-07-13T06:06:23;-13060.13;;;23.06;100.00
54503;BME280;40411;50.090;21.954;2023-07-13T06:08:49;-13397.66;;;23.30;100.00
54503;BME280;40411;50.090;21.954;2023-07-13T06:11:18;-13740.25;;;23.85;100.00
54503;BME280;40411;50.090;21.954;2023-07-13T06:13:44;-13400.38;;;23.48;100.00
54503;BME280;40411;50.090;21.954;2023-07-13T06:16:11;-14417.03;;;24.34;100.00
54503;BME280;40411;50.090;21.954;2023-07-13T06:18:37;-14081.75;;;24.30;100.00
54503;BME280;40411;50.090;21.954;2023-07-13T06:21:11;-14080.63;;;24.23;100.00
54503;BME280;40411;50.090;21.954;2023-07-13T06:23:38;-14421.59;;;24.62;100.00
54503;BME280;40411;50.090;21.954;2023-07-13T06:26:05;-14763.47;;;25.05;100.00
54503;BME280;40411;50.090;21.954;2023-07-13T06:28:30;-14424.84;;;24.82;100.00
54503;BME280;40411;50.090;21.954;2023-07-13T06:30:58;-15101.09;;;25.20;100.00
54503;BME280;40411;50.090;21.954;2023-07-13T06:33:24;-14765.88;;;25.19;100.00
54503;BME280;40411;50.090;21.954;2023-07-13T06:35:50;-15784.53;;;25.94;100.00
54503;BME280;40411;50.090;21.954;2023-07-13T06:38:16;-15109.53;;;25.69;100.00
54503;BME280;40411;50.090;21.954;2023-07-13T06:40:42;-15787.13;;;26.08;100.00
54503;BME280;40411;50.090;21.954;2023-07-13T06:43:08;-14766.03;;;25.20;100.00
54503;BME280;40411;50.090;21.954;2023-07-13T06:45:45;-14765.94;;;25.19;100.00
54503;BME280;40411;50.090;21.954;2023-07-13T06:48:13;-14085.34;;;24.53;100.00
54503;BME280;40411;50.090;21.954;2023-07-13T06:50:40;-14082.69;;;24.36;100.00
54503;BME280;40411;50.090;21.954;2023-07-13T06:53:06;-14421.28;;;24.60;100.00
54503;BME280;40411;50.090;21.954;2023-07-13T06:55:32;-14082.22;;;24.33;100.00
54503;BME280;40411;50.090;21.954;2023-07-13T06:57:58;-14085.75;;;24.56;100.00
54503;BME280;40411;50.090;21.954;2023-07-13T07:00:24;-14420.94;;;24.58;100.00
54503;BME280;40411;50.090;21.954;2023-07-13T07:02:49;-14764.75;;;25.12;100.00
54503;BME280;40411;50.090;21.954;2023-07-13T07:05:15;-14762.19;;;24.97;100.00
54503;BME280;40411;50.090;21.954;2023-07-13T07:07:41;-14085.19;;;24.52;100.00
54503;BME280;40411;50.090;21.954;2023-07-13T07:10:08;-15441.38;;;25.50;100.00
54503;BME280;40411;50.090;21.954;2023-07-13T07:12:34;-15108.81;;;25.65;100.00
54503;BME280;40411;50.090;21.954;2023-07-13T07:15:00;-15444.25;;;25.66;100.00
54503;BME280;40411;50.090;21.954;2023-07-13T07:17:25;-15449.06;;;25.93;100.00
54503;BME280;40411;50.090;21.954;2023-07-13T07:19:52;-15793.19;;;26.41;97.96
54503;BME280;40411;50.090;21.954;2023-07-13T07:22:20;-15793.47;;;26.43;98.06
54503;BME280;40411;50.090;21.954;2023-07-13T07:24:46;-15109.53;;;25.69;100.00
54503;BME280;40411;50.090;21.954;2023-07-13T07:27:12;-15795.69;;;26.55;98.17
54503;BME280;40411;50.090;21.954;2023-07-13T07:29:38;-16136.72;;;26.84;96.75
54503;BME280;40411;50.090;21.954;2023-07-13T07:32:04;-15455.47;;;26.29;99.24
54503;BME280;40411;50.090;21.954;2023-07-13T07:34:31;-15456.13;;;26.33;97.37
54503;BME280;40411;50.090;21.954;2023-07-13T07:37:00;-15794.09;;;26.46;98.75
54503;BME280;40411;50.090;21.954;2023-07-13T07:39:27;-16133.66;;;26.67;100.00
54503;BME280;40411;50.090;21.954;2023-07-13T07:41:53;-15793.28;;;26.42;100.00
54503;BME280;40411;50.090;21.954;2023-07-13T07:44:19;-14774.72;;;25.72;100.00
54503;BME280;40411;50.090;21.954;2023-07-13T07:46:44;-15449.41;;;25.95;100.00
54503;BME280;40411;50.090;21.954;2023-07-13T07:49:10;-15788.53;;;26.16;100.00
54503;BME280;40411;50.090;21.954;2023-07-13T07:51:37;-16129.53;;;26.45;100.00
54503;BME280;40411;50.090;21.954;2023-07-13T07:54:04;-16133.66;;;26.67;100.00
54503;BME280;40411;50.090;21.954;2023-07-13T07:56:30;-16479.84;;;27.22;96.93
54503;BME280;40411;50.090;21.954;2023-07-13T07:58:55;-17168.16;;;28.03;93.86
54503;BME280;40411;50.090;21.954;2023-07-13T08:01:21;-16833.22;;;28.11;91.33
54503;BME280;40411;50.090;21.954;2023-07-13T08:03:48;-18247.66;;;31.29;76.94
54503;BME280;40411;50.090;21.954;2023-07-13T08:06:14;-17563.31;;;30.88;76.34
54503;BME280;40411;50.090;21.954;2023-07-13T08:08:40;-18244.88;;;31.16;80.00
54503;BME280;40411;50.090;21.954;2023-07-13T08:11:07;-17895.56;;;30.62;82.10
54503;BME280;40411;50.090;21.954;2023-07-13T08:13:34;-17900.53;;;30.86;79.44
54503;BME280;40411;50.090;21.954;2023-07-13T08:16:00;-18259.78;;;31.86;75.03
54503;BME280;40411;50.090;21.954;2023-07-13T08:18:27;-18635.56;;;33.56;67.48
54503;BME280;40411;50.090;21.954;2023-07-13T08:20:55;-18635.00;;;33.53;68.15
54503;BME280;40411;50.090;21.954;2023-07-13T08:23:22;-18303.97;;;33.91;62.92
54503;BME280;40411;50.090;21.954;2023-07-13T08:25:52;-17976.03;;;34.45;60.62
54503;BME280;40411;50.090;21.954;2023-07-13T08:28:20;-16925.50;;;32.82;64.40
54503;BME280;40411;50.090;21.954;2023-07-13T08:30:45;-18309.69;;;34.17;65.04
54503;BME280;40411;50.090;21.954;2023-07-13T08:33:19;-17271.47;;;33.18;65.05
54503;BME280;40411;50.090;21.954;2023-07-13T08:35:46;-16222.19;;;31.44;69.83
54503;BME280;40411;50.090;21.954;2023-07-13T08:38:13;-15174.50;;;29.49;77.35
54503;BME280;40411;50.090;21.954;2023-07-13T08:40:39;-15511.66;;;29.49;80.36
54503;BME280;40411;50.090;21.954;2023-07-13T08:43:13;-15517.22;;;29.80;79.00
54503;BME280;40411;50.090;21.954;2023-07-13T08:45:52;-15515.16;;;29.69;78.19
54503;BME280;40411;50.090;21.954;2023-07-13T08:48:38;-16201.81;;;30.34;78.75
54503;BME280;40411;50.090;21.954;2023-07-13T08:51:11;-18279.75;;;32.78;74.63
54503;BME280;40411;50.090;21.954;2023-07-13T08:53:44;-17940.19;;;32.74;70.52
54503;BME280;40411;50.090;21.954;2023-07-13T08:56:18;-17604.19;;;32.87;66.65
54503;BME280;40411;50.090;21.954;2023-07-13T08:58:47;-18293.63;;;33.43;69.99
54503;BME280;40411;50.090;21.954;2023-07-13T09:04:22;-18307.59;;;34.08;65.23
54503;BME280;40411;50.090;21.954;2023-07-13T09:15:03;-17288.41;;;34.03;60.08
54503;BME280;40411;50.090;21.954;2023-07-13T09:17:42;-16239.28;;;32.36;63.60
54503;BME280;40411;50.090;21.954;2023-07-13T09:23:12;-14860.56;;;30.91;68.65
54503;BME280;40411;50.090;21.954;2023-07-13T09:25:41;-15540.13;;;31.11;70.27
54503;BME280;40411;50.090;21.954;2023-07-13T09:28:21;-16588.88;;;32.94;62.54
54503;BME280;40411;50.090;21.954;2023-07-13T09:33:24;-16598.66;;;33.46;59.39
54503;BME280;40411;50.090;21.954;2023-07-13T09:35:51;-15215.38;;;31.90;62.64
54503;BME280;40411;50.090;21.954;2023-07-13T09:38:18;-15211.22;;;31.66;65.29
54503;BME280;40411;50.090;21.954;2023-07-13T09:41:03;-14869.13;;;31.43;64.07
54503;BME280;40411;50.090;21.954;2023-07-13T09:43:31;-14867.88;;;31.35;64.34
54503;BME280;40411;50.090;21.954;2023-07-13T09:45:57;-15559.22;;;32.21;63.99
54503;BME280;40411;50.090;21.954;2023-07-13T09:48:22;-14535.69;;;31.74;61.58
54503;BME280;40411;50.090;21.954;2023-07-13T09:50:54;-15909.03;;;32.83;61.95
54503;BME280;40411;50.090;21.954;2023-07-13T09:53:21;-15573.97;;;33.06;57.76
54503;BME280;40411;50.090;21.954;2023-07-13T09:55:49;-14531.69;;;31.49;63.84
54503;BME280;40411;50.090;21.954;2023-07-13T09:58:23;-13845.34;;;30.84;65.28
54503;BME280;40411;50.090;21.954;2023-07-13T10:01:16;-14537.06;;;31.82;61.50
54503;BME280;40411;50.090;21.954;2023-07-13T10:03:56;-14868.28;;;31.38;66.79
54503;BME280;40411;50.090;21.954;2023-07-13T10:06:23;-14530.88;;;31.44;64.45
54503;BME280;40411;50.090;21.954;2023-07-13T10:08:53;-14187.13;;;31.08;64.77
54503;BME280;40411;50.090;21.954;2023-07-13T10:11:25;-13503.94;;;30.61;65.30
54503;BME280;40411;50.090;21.954;2023-07-13T10:13:58;-13496.72;;;30.11;68.76
54503;BME280;40411;50.090;21.954;2023-07-13T10:16:28;-13836.59;;;30.25;70.14
54503;BME280;40411;50.090;21.954;2023-07-13T10:19:10;-14179.88;;;30.61;68.52
54503;BME280;40411;50.090;21.954;2023-07-13T10:21:58;-14519.59;;;30.72;69.61
54503;BME280;40411;50.090;21.954;2023-07-13T10:24:30;-13500.41;;;30.37;68.03
54503;BME280;40411;50.090;21.954;2023-07-13T10:27:37;-13836.38;;;30.24;69.39
54503;BME280;40411;50.090;21.954;2023-07-13T10:30:02;-13835.06;;;30.15;71.21
54503;BME280;40411;50.090;21.954;2023-07-13T10:32:35;-13491.66;;;29.76;72.40
54503;BME280;40411;50.090;21.954;2023-07-13T10:35:01;-14173.81;;;30.22;71.94
54503;BME280;40411;50.090;21.954;2023-07-13T10:37:41;-12812.06;;;29.43;71.47
54503;BME280;40411;50.090;21.954;2023-07-13T10:40:16;-13831.03;;;29.88;72.45
54503;BME280;40411;50.090;21.954;2023-07-13T10:42:46;-13152.03;;;29.61;72.35
54503;BME280;40411;50.090;21.954;2023-07-13T10:45:18;-13145.50;;;29.14;74.98
54503;BME280;40411;50.090;21.954;2023-07-13T10:47:46;-13486.72;;;29.42;76.18
54503;BME280;40411;50.090;21.954;2023-07-13T10:50:20;-13488.03;;;29.51;75.12
54503;BME280;40411;50.090;21.954;2023-07-13T10:52:49;-13825.53;;;29.51;75.03
54503;BME280;40411;50.090;21.954;2023-07-13T10:55:38;-13485.69;;;29.34;75.57
54503;BME280;40411;50.090;21.954;2023-07-13T10:58:20;-12806.28;;;29.00;75.49
54503;BME280;40411;50.090;21.954;2023-07-13T11:00:50;-12804.38;;;28.85;77.22
54503;BME280;40411;50.090;21.954;2023-07-13T11:03:20;-12464.97;;;28.68;75.87
54503;BME280;40411;50.090;21.954;2023-07-13T11:05:49;-12805.63;;;28.94;75.27
54503;BME280;40411;50.090;21.954;2023-07-13T11:08:33;-12805.41;;;28.93;74.42
54503;BME280;40411;50.090;21.954;2023-07-13T11:11:03;-13145.56;;;29.14;76.46
54503;BME280;40411;50.090;21.954;2023-07-13T11:13:36;-11447.94;;;28.18;75.46
54503;BME280;40411;50.090;21.954;2023-07-13T11:16:13;-11785.78;;;28.26;76.61
54503;BME280;40411;50.090;21.954;2023-07-13T11:18:39;-12464.06;;;28.61;76.53
54503;BME280;40411;50.090;21.954;2023-07-13T11:23:43;-12462.59;;;28.49;77.94
54503;BME280;40411;50.090;21.954;2023-07-13T11:27:11;-12121.81;;;28.19;78.56
54503;BME280;40411;50.090;21.954;2023-07-13T11:31:52;-11783.44;;;28.06;79.07
54503;BME280;40411;50.090;21.954;2023-07-13T11:34:26;-12121.06;;;28.13;78.75
54503;BME280;40411;50.090;21.954;2023-07-13T11:36:52;-12459.63;;;28.26;79.45
54503;BME280;40411;50.090;21.954;2023-07-13T11:39:41;-12801.03;;;28.60;78.41
54503;BME280;40411;50.090;21.954;2023-07-13T11:42:12;-12124.53;;;28.41;77.57
54503;BME280;40411;50.090;21.954;2023-07-13T11:44:43;-12124.28;;;28.39;77.95
54503;BME280;40411;50.090;21.954;2023-07-13T11:47:18;-12122.63;;;28.25;78.84
54503;BME280;40411;50.090;21.954;2023-07-13T11:49:52;-12120.34;;;28.07;80.12
54503;BME280;40411;50.090;21.954;2023-07-13T11:52:33;-11777.03;;;27.52;82.83
54503;BME280;40411;50.090;21.954;2023-07-13T11:55:01;-11439.19;;;27.41;82.49
54503;BME280;40411;50.090;21.954;2023-07-13T11:57:29;-11774.59;;;27.32;84.22
54503;BME280;40411;50.090;21.954;2023-07-13T12:00:12;-11434.53;;;27.00;87.29
54503;BME280;40411;50.090;21.954;2023-07-13T12:02:43;-11767.16;;;26.69;90.06
54503;BME280;40411;50.090;21.954;2023-07-13T12:05:15;-11426.34;;;26.28;92.67
54503;BME280;40411;50.090;21.954;2023-07-13T12:07:43;-11420.03;;;25.73;97.60
54503;BME280;40411;50.090;21.954;2023-07-13T12:10:23;-12090.03;;;25.63;100.00
54503;BME280;40411;50.090;21.954;2023-07-13T12:13:04;-11748.09;;;25.10;100.00
54503;BME280;40411;50.090;21.954;2023-07-13T12:15:37;-12417.31;;;25.01;100.00
54503;BME280;40411;50.090;21.954;2023-07-13T12:18:14;-12741.78;;;24.22;100.00
54503;BME280;40411;50.090;21.954;2023-07-13T12:20:40;-13406.69;;;23.91;100.00
54503;BME280;40411;50.090;21.954;2023-07-13T12:23:21;-13738.22;;;23.72;100.00
54503;BME280;40411;50.090;21.954;2023-07-13T12:25:52;-13063.03;;;23.27;100.00
54503;BME280;40411;50.090;21.954;2023-07-13T12:28:36;-13061.28;;;23.14;100.00
54503;BME280;40411;50.090;21.954;2023-07-13T12:31:05;-13061.56;;;23.16;100.00
54503;BME280;40411;50.090;21.954;2023-07-13T12:33:33;-13397.50;;;23.29;100.00
54503;BME280;40411;50.090;21.954;2023-07-13T12:36:04;-13397.66;;;23.30;100.00
54503;BME280;40411;50.090;21.954;2023-07-13T12:38:31;-13066.56;;;23.52;100.00
54503;BME280;40411;50.090;21.954;2023-07-13T12:40:58;-13064.84;;;23.39;100.00
54503;BME280;40411;50.090;21.954;2023-07-13T12:43:25;-13063.66;;;23.31;100.00
54503;BME280;40411;50.090;21.954;2023-07-13T12:46:02;-13738.53;;;23.74;100.00
54503;BME280;40411;50.090;21.954;2023-07-13T12:48:29;-14077.00;;;24.00;100.00
54503;BME280;40411;50.090;21.954;2023-07-13T12:50:56;-14752.19;;;24.37;100.00
54503;BME280;40411;50.090;21.954;2023-07-13T12:53:30;-14758.19;;;24.73;100.00
54503;BME280;40411;50.090;21.954;2023-07-13T12:56:02;-14763.66;;;25.06;100.00
54503;BME280;40411;50.090;21.954;2023-07-13T12:58:39;-14765.09;;;25.14;100.00
54503;BME280;40411;50.090;21.954;2023-07-13T13:01:11;-14763.81;;;25.07;100.00
54503;BME280;40411;50.090;21.954;2023-07-13T13:03:40;-14760.66;;;24.88;100.00
54503;BME280;40411;50.090;21.954;2023-07-13T13:08:42;-12736.97;;;23.86;100.00
54503;BME280;40411;50.090;21.954;2023-07-13T13:11:09;-12736.47;;;23.83;100.00